aviador You're here:

YBWP Decoded Metar

WEIPA in AUSTRALIA
Report Time2017-12-11 09:00:00
UTC Time2017-12-11 09:13:48
Flight Rules vfr VFR
Wind290° at 02 kt
W.Decomp.*RWY 30: 1.9 kt HW 0.6 kt LCW
W.Rank290° ranks 16
Current wind is below 290° avg. (6.0)
Visibility9999 m
Phenomena:N/A
Clouds:Broken 059 Hf
Overcast 073 Hf
Expected CloudBase > 2,800 ft AGL from Temp-Dew spread
Ceiling5,900 ft
Temp30°C (ISA +15)
Dew Point23°C (66% RH)
Heat Index34.1°C
QNH1007 hPa
Density Alt2,339 ft
Elevation39 ft
Report Wrong Elevation
Raw Report
METAR YBWP 110900Z AUTO 29002KT 9999 // BKN059 OVC073 30/23 Q1007=

Extra information for YBWP:More info

Metar Taf Metar & Taf Last 4 Metars F.Rules Stats Wind Profile Meteogram Temp Stats Airport Information Weather charts Add Link Nearby VenuesMetar ALERT Operation Metar Decoded Social comments